createdAt,value
2018-06-09T00:02:01.139Z,83.07
2018-06-09T00:04:32.542Z,80.77
2018-06-09T00:07:00.292Z,78.57
2018-06-09T00:09:27.499Z,74.67
2018-06-09T00:11:54.707Z,79.97
2018-06-09T00:14:21.891Z,80.23
2018-06-09T00:16:49.056Z,74.27
2018-06-09T00:19:20.672Z,73.90
2018-06-09T00:21:47.851Z,79.90
2018-06-09T00:24:15.063Z,76.20
2018-06-09T00:26:42.303Z,80.07
2018-06-09T00:29:09.535Z,83.03
2018-06-09T00:31:36.803Z,82.23
2018-06-09T00:34:04.003Z,76.23
2018-06-09T00:36:31.258Z,82.83
2018-06-09T00:38:58.459Z,80.43
2018-06-09T00:41:25.641Z,80.30
2018-06-09T00:43:52.835Z,81.53
2018-06-09T00:46:20.015Z,80.20
2018-06-09T00:48:47.198Z,79.97
2018-06-09T00:51:14.443Z,83.13
2018-06-09T00:53:41.611Z,81.73
2018-06-09T00:56:20.335Z,77.53
2018-06-09T00:58:47.747Z,86.17
2018-06-09T01:01:15.115Z,81.50
2018-06-09T01:03:42.598Z,79.63
2018-06-09T01:06:10.044Z,76.23
2018-06-09T01:08:37.551Z,76.17
2018-06-09T01:11:04.946Z,79.23
2018-06-09T01:13:32.338Z,84.50
2018-06-09T01:15:59.719Z,77.27
2018-06-09T01:18:27.192Z,79.47
2018-06-09T01:20:54.585Z,82.23
2018-06-09T01:23:21.980Z,80.40
2018-06-09T01:25:49.368Z,79.20
2018-06-09T01:28:16.767Z,78.63
2018-06-09T01:30:44.216Z,75.73
2018-06-09T01:33:11.655Z,77.77
2018-06-09T01:35:42.646Z,75.70
2018-06-09T01:38:10.111Z,70.63
2018-06-09T01:40:37.525Z,71.73
2018-06-09T01:43:04.912Z,68.17
2018-06-09T01:45:32.343Z,66.10
2018-06-09T01:48:02.967Z,63.57
2018-06-09T01:50:31.722Z,61.07
2018-06-09T01:52:59.112Z,59.87
2018-06-09T01:55:26.491Z,57.87
2018-06-09T01:57:53.876Z,56.03
2018-06-09T02:00:21.519Z,55.00
2018-06-09T02:02:50.866Z,51.87
2018-06-09T02:05:18.435Z,52.47
2018-06-09T02:07:45.852Z,51.53
2018-06-09T02:10:13.240Z,46.63
2018-06-09T02:12:40.623Z,44.90
2018-06-09T02:15:08.071Z,40.97
2018-06-09T02:17:36.895Z,40.63
2018-06-09T02:20:04.326Z,39.13
2018-06-09T02:22:31.743Z,38.20
2018-06-09T02:24:59.171Z,36.80
2018-06-09T02:27:26.556Z,36.63
2018-06-09T02:29:58.796Z,33.97
2018-06-09T02:32:26.440Z,34.30
2018-06-09T02:34:53.820Z,33.07
2018-06-09T02:37:21.214Z,33.40
2018-06-09T02:39:48.616Z,32.97
2018-06-09T02:42:16.008Z,32.10
2018-06-09T02:44:44.558Z,32.07
2018-06-09T02:47:11.972Z,30.93
2018-06-09T02:49:39.372Z,29.13
2018-06-09T02:52:06.791Z,28.43
2018-06-09T02:54:34.171Z,27.87
2018-06-09T02:57:01.640Z,28.00
2018-06-09T02:59:33.511Z,28.20
2018-06-09T03:02:00.999Z,27.50
2018-06-09T03:04:28.415Z,27.57
2018-06-09T03:06:55.835Z,27.93
2018-06-09T03:09:23.247Z,26.43
2018-06-09T03:11:50.663Z,28.10
2018-06-09T03:14:18.191Z,26.33
2018-06-09T03:16:45.565Z,23.67
2018-06-09T03:19:13.271Z,25.13
2018-06-09T03:21:40.649Z,25.97
2018-06-09T03:24:08.139Z,24.50
2018-06-09T03:26:35.596Z,24.87
2018-06-09T03:29:03.033Z,23.97
2018-06-09T03:31:31.640Z,24.97
2018-06-09T03:33:59.313Z,23.53
2018-06-09T03:36:26.800Z,23.97
2018-06-09T03:38:54.208Z,24.70
2018-06-09T03:41:21.648Z,23.13
2018-06-09T03:43:49.043Z,23.90
2018-06-09T03:46:16.435Z,23.57
2018-06-09T03:48:43.963Z,22.63
2018-06-09T03:51:11.445Z,25.50
2018-06-09T03:53:38.843Z,24.27
2018-06-09T03:56:06.247Z,23.90
2018-06-09T03:58:33.699Z,24.43
2018-06-09T04:01:01.096Z,25.27
2018-06-09T04:03:28.511Z,24.23
2018-06-09T04:05:57.259Z,24.70
2018-06-09T04:08:24.636Z,27.90
2018-06-09T04:10:52.035Z,23.97
2018-06-09T04:13:19.414Z,22.97
2018-06-09T04:15:46.787Z,22.37
2018-06-09T04:18:14.229Z,23.37
2018-06-09T04:20:41.645Z,23.50
2018-06-09T04:23:10.271Z,23.60
2018-06-09T04:25:37.719Z,21.17
2018-06-09T04:28:05.120Z,21.20
2018-06-09T04:30:32.520Z,22.30
2018-06-09T04:32:59.939Z,20.70
2018-06-09T04:35:27.379Z,18.80
2018-06-09T04:37:57.469Z,19.60
2018-06-09T04:40:24.859Z,19.17
2018-06-09T04:42:52.260Z,22.73
2018-06-09T04:45:19.646Z,20.47
2018-06-09T04:47:47.051Z,20.03
2018-06-09T04:50:14.723Z,18.20
2018-06-09T04:52:43.752Z,18.83
2018-06-09T04:55:11.175Z,19.07
2018-06-09T04:57:38.612Z,19.77
2018-06-09T05:00:06.041Z,19.83
2018-06-09T05:02:33.516Z,19.57
2018-06-09T05:05:05.901Z,19.50
2018-06-09T05:07:33.296Z,19.00
2018-06-09T05:10:00.712Z,17.57
2018-06-09T05:12:28.102Z,17.90
2018-06-09T05:14:55.517Z,17.03
2018-06-09T05:17:22.932Z,17.10
2018-06-09T05:19:54.663Z,18.33
2018-06-09T05:22:22.159Z,17.57
2018-06-09T05:24:49.555Z,20.90
2018-06-09T05:27:16.955Z,17.20
2018-06-09T05:29:44.417Z,17.70
2018-06-09T05:32:11.822Z,17.47
2018-06-09T05:34:40.555Z,17.30
2018-06-09T05:37:07.968Z,16.97
2018-06-09T05:39:35.361Z,18.67
2018-06-09T05:42:02.913Z,17.27
2018-06-09T05:44:30.328Z,17.50
2018-06-09T05:46:57.724Z,17.70
2018-06-09T05:49:27.053Z,18.63
2018-06-09T05:51:54.392Z,17.77
2018-06-09T05:54:21.774Z,18.30
2018-06-09T05:56:49.191Z,17.33
2018-06-09T05:59:16.584Z,18.13
2018-06-09T06:01:43.979Z,19.33
2018-06-09T06:04:16.676Z,19.07
2018-06-09T06:06:44.023Z,19.50
2018-06-09T06:09:11.219Z,20.20
2018-06-09T06:11:38.434Z,18.70
2018-06-09T06:14:05.646Z,20.43
2018-06-09T06:16:32.857Z,19.37
2018-06-09T06:19:04.180Z,19.27
2018-06-09T06:21:31.390Z,19.60
2018-06-09T06:23:58.659Z,17.37
2018-06-09T06:26:25.879Z,21.70
2018-06-09T06:28:53.077Z,18.47
2018-06-09T06:31:20.272Z,18.57
2018-06-09T06:33:52.547Z,18.67
2018-06-09T06:36:19.755Z,19.80
2018-06-09T06:38:46.979Z,19.60
2018-06-09T06:41:14.188Z,19.27
2018-06-09T06:43:41.415Z,19.37
2018-06-09T06:46:08.662Z,19.60
2018-06-09T06:48:35.883Z,19.70
2018-06-09T06:51:06.885Z,19.60
2018-06-09T06:53:34.157Z,20.10
2018-06-09T06:56:01.472Z,20.17
2018-06-09T06:58:28.670Z,19.90
2018-06-09T07:00:55.882Z,21.30
2018-06-09T07:03:23.096Z,20.87
2018-06-09T07:05:51.886Z,19.80
2018-06-09T07:08:19.059Z,18.40
2018-06-09T07:10:46.244Z,19.30
2018-06-09T07:13:13.448Z,19.47
2018-06-09T07:15:40.635Z,20.10
2018-06-09T07:18:07.812Z,21.13
2018-06-09T07:20:34.996Z,20.63
2018-06-09T07:23:04.411Z,22.10
2018-06-09T07:25:31.732Z,20.70
2018-06-09T07:27:58.931Z,21.40
2018-06-09T07:30:26.119Z,21.10
2018-06-09T07:32:53.305Z,22.40
2018-06-09T07:35:20.494Z,20.83
2018-06-09T07:37:47.703Z,21.77
2018-06-09T07:40:17.544Z,20.60
2018-06-09T07:42:44.770Z,20.80
2018-06-09T07:45:12.338Z,21.70
2018-06-09T07:47:39.564Z,19.90
2018-06-09T07:50:06.764Z,19.97
2018-06-09T07:52:33.945Z,20.03
2018-06-09T07:55:02.631Z,19.73
2018-06-09T07:57:29.829Z,19.33
2018-06-09T07:59:57.013Z,19.83
2018-06-09T08:02:24.234Z,20.53
2018-06-09T08:04:51.420Z,19.23
2018-06-09T08:07:18.607Z,18.20
2018-06-09T08:09:49.839Z,18.80
2018-06-09T08:12:17.040Z,18.83
2018-06-09T08:14:44.330Z,20.13
2018-06-09T08:17:11.783Z,17.23
2018-06-09T08:19:38.967Z,17.93
2018-06-09T08:22:06.200Z,16.83
2018-06-09T08:24:34.808Z,18.40
2018-06-09T08:27:02.036Z,18.47
2018-06-09T08:29:29.219Z,20.20
2018-06-09T08:31:56.404Z,16.27
2018-06-09T08:34:23.575Z,18.53
2018-06-09T08:36:50.763Z,17.40
2018-06-09T08:39:17.954Z,16.70
2018-06-09T08:41:47.325Z,18.20
2018-06-09T08:44:14.510Z,17.07
2018-06-09T08:46:41.716Z,17.33
2018-06-09T08:49:08.897Z,17.03
2018-06-09T08:51:36.171Z,17.30
2018-06-09T08:54:03.368Z,17.80
2018-06-09T08:56:32.360Z,18.10
2018-06-09T08:58:59.536Z,17.53
2018-06-09T09:01:26.720Z,18.97
2018-06-09T09:03:53.899Z,18.40
2018-06-09T09:06:21.114Z,21.57
2018-06-09T09:08:48.303Z,18.40
2018-06-09T09:11:15.516Z,18.20
2018-06-09T09:13:46.210Z,19.97
2018-06-09T09:16:13.458Z,18.83
2018-06-09T09:18:40.675Z,18.70
2018-06-09T09:21:07.908Z,17.40
2018-06-09T09:23:35.127Z,18.43
2018-06-09T09:26:02.320Z,19.97
2018-06-09T09:28:29.567Z,17.20
2018-06-09T09:30:56.787Z,18.20
2018-06-09T09:33:23.998Z,19.87
2018-06-09T09:35:51.206Z,16.83
2018-06-09T09:38:18.420Z,17.53
2018-06-09T09:40:45.623Z,17.20
2018-06-09T09:43:12.855Z,17.80
2018-06-09T09:45:40.064Z,18.37
2018-06-09T09:48:07.255Z,17.17
2018-06-09T09:50:34.508Z,16.50
2018-06-09T09:53:01.714Z,18.90
2018-06-09T09:55:28.921Z,17.20
2018-06-09T09:58:00.767Z,19.00
2018-06-09T10:00:33.731Z,16.90
2018-06-09T10:03:00.935Z,17.10
2018-06-09T10:05:28.140Z,17.67
2018-06-09T10:07:55.428Z,18.23
2018-06-09T10:10:22.654Z,16.57
2018-06-09T10:12:49.886Z,16.07
2018-06-09T10:15:17.096Z,17.97
2018-06-09T10:17:44.467Z,18.07
2018-06-09T10:20:11.711Z,15.30
2018-06-09T10:22:38.935Z,18.57
2018-06-09T10:25:06.128Z,17.07
2018-06-09T10:27:33.877Z,15.93
2018-06-09T10:30:01.103Z,18.03
2018-06-09T10:32:28.327Z,18.03
2018-06-09T10:34:55.541Z,19.50
2018-06-09T10:37:22.751Z,18.40
2018-06-09T10:39:49.967Z,19.20
2018-06-09T10:42:17.179Z,18.73
2018-06-09T10:44:44.464Z,18.23
2018-06-09T10:47:11.651Z,19.30
2018-06-09T10:49:38.832Z,18.13
2018-06-09T10:52:06.076Z,17.83
2018-06-09T10:54:33.291Z,18.47
2018-06-09T10:57:00.487Z,19.43
2018-06-09T10:59:27.727Z,19.50
2018-06-09T11:01:55.029Z,18.83
2018-06-09T11:04:22.239Z,19.30
2018-06-09T11:06:49.419Z,20.27
2018-06-09T11:09:16.622Z,20.87
2018-06-09T11:11:43.975Z,18.63
2018-06-09T11:14:11.247Z,19.43
2018-06-09T11:16:38.457Z,18.27
2018-06-09T11:19:05.637Z,19.60
2018-06-09T11:21:32.827Z,19.23
2018-06-09T11:24:00.018Z,19.63
2018-06-09T11:26:27.254Z,19.90
2018-06-09T11:28:54.464Z,19.57
2018-06-09T11:31:22.790Z,20.80
2018-06-09T11:33:50.113Z,18.87
2018-06-09T11:36:17.535Z,17.00
2018-06-09T11:38:45.179Z,17.60
2018-06-09T11:41:12.798Z,19.30
2018-06-09T11:43:40.215Z,18.70
2018-06-09T11:46:07.602Z,19.50
2018-06-09T11:48:34.991Z,17.93
2018-06-09T11:51:02.348Z,19.03
2018-06-09T11:53:29.699Z,20.50
2018-06-09T11:55:57.132Z,17.83
2018-06-09T11:58:24.645Z,18.53
2018-06-09T12:00:52.472Z,18.67
2018-06-09T12:03:19.831Z,16.80
2018-06-09T12:05:47.356Z,19.20
2018-06-09T12:08:15.062Z,18.07
2018-06-09T12:10:42.741Z,16.37
2018-06-09T12:13:10.369Z,16.40
2018-06-09T12:15:38.043Z,17.97
2018-06-09T12:18:05.649Z,16.00
2018-06-09T12:20:33.523Z,18.00
2018-06-09T12:23:01.286Z,17.50
2018-06-09T12:25:29.091Z,19.13
2018-06-09T12:27:56.758Z,16.37
2018-06-09T12:30:24.459Z,17.40
2018-06-09T12:32:53.067Z,15.97
2018-06-09T12:35:20.527Z,17.80
2018-06-09T12:37:48.069Z,17.80
2018-06-09T12:40:15.486Z,18.90
2018-06-09T12:42:43.751Z,17.30
2018-06-09T12:45:11.176Z,15.97
2018-06-09T12:47:38.567Z,19.60
2018-06-09T12:50:05.966Z,16.53
2018-06-09T12:52:33.602Z,16.93
2018-06-09T12:55:01.010Z,16.40
2018-06-09T12:57:28.456Z,16.57
2018-06-09T12:59:55.896Z,15.97
2018-06-09T13:02:23.446Z,17.10
2018-06-09T13:04:50.904Z,17.67
2018-06-09T13:07:18.532Z,16.33
2018-06-09T13:09:46.086Z,15.10
2018-06-09T13:12:13.648Z,17.80
2018-06-09T13:14:41.270Z,16.30
2018-06-09T13:17:08.971Z,18.00
2018-06-09T13:19:36.616Z,18.23
2018-06-09T13:22:04.208Z,16.03
2018-06-09T13:24:32.055Z,15.43
2018-06-09T13:26:59.571Z,14.17
2018-06-09T13:29:30.794Z,15.87
2018-06-09T13:32:00.291Z,17.57
2018-06-09T13:34:27.678Z,16.53
2018-06-09T13:36:55.108Z,15.60
2018-06-09T13:39:22.507Z,13.73
2018-06-09T13:41:53.328Z,13.83
2018-06-09T13:44:21.760Z,14.67
2018-06-09T13:46:54.459Z,16.00
2018-06-09T13:49:23.117Z,14.63
2018-06-09T13:51:50.528Z,14.90
2018-06-09T13:54:17.994Z,16.97
2018-06-09T13:56:47.506Z,18.17
2018-06-09T13:59:20.317Z,17.37
2018-06-09T14:01:47.715Z,13.33
2018-06-09T14:04:15.246Z,16.53
2018-06-09T14:06:43.808Z,14.43
2018-06-09T14:09:11.129Z,15.90
2018-06-09T14:11:39.853Z,16.70
2018-06-09T14:14:07.507Z,15.40
2018-06-09T14:16:38.727Z,14.43
2018-06-09T14:19:06.109Z,14.33
2018-06-09T14:21:36.795Z,16.50
2018-06-09T14:24:06.388Z,13.20
2018-06-09T14:26:33.854Z,14.90
2018-06-09T14:29:01.460Z,15.40
2018-06-09T14:31:28.937Z,13.73
2018-06-09T14:33:59.466Z,15.37
2018-06-09T14:36:32.815Z,14.20
2018-06-09T14:39:00.179Z,14.90
2018-06-09T14:41:27.657Z,16.40
2018-06-09T14:43:55.035Z,12.70
2018-06-09T14:46:22.420Z,15.40
2018-06-09T14:48:49.771Z,15.00
2018-06-09T14:51:17.405Z,15.00
2018-06-09T14:53:44.981Z,15.20
2018-06-09T14:56:14.028Z,13.30
2018-06-09T14:58:41.447Z,14.70
2018-06-09T15:01:08.945Z,16.27
2018-06-09T15:03:36.638Z,13.73
2018-06-09T15:06:04.341Z,16.07
2018-06-09T15:08:31.702Z,16.53
2018-06-09T15:11:04.748Z,19.40
2018-06-09T15:13:32.114Z,13.60
2018-06-09T15:16:00.897Z,16.47
2018-06-09T15:18:28.948Z,16.50
2018-06-09T15:20:56.350Z,17.47
2018-06-09T15:23:24.719Z,15.80
2018-06-09T15:25:52.109Z,17.30
2018-06-09T15:28:19.664Z,18.70
2018-06-09T15:30:49.075Z,14.93
2018-06-09T15:33:16.413Z,17.87
2018-06-09T15:35:43.879Z,19.47
2018-06-09T15:38:11.348Z,15.80
2018-06-09T15:40:38.849Z,15.13
2018-06-09T15:43:06.393Z,17.97
2018-06-09T15:45:34.947Z,17.23
2018-06-09T15:48:02.432Z,17.30
2018-06-09T15:50:29.948Z,18.40
2018-06-09T15:52:57.463Z,15.97
2018-06-09T15:55:24.883Z,18.73
2018-06-09T15:57:52.263Z,16.50
2018-06-09T16:00:19.689Z,19.20
2018-06-09T16:02:57.574Z,17.57
2018-06-09T16:05:25.000Z,15.80
2018-06-09T16:07:52.351Z,17.77
2018-06-09T16:10:19.751Z,18.07
2018-06-09T16:12:47.106Z,17.30
2018-06-09T16:15:18.188Z,16.03
2018-06-09T16:17:45.610Z,15.13
2018-06-09T16:20:13.054Z,20.83
2018-06-09T16:22:40.359Z,14.40
2018-06-09T16:25:08.202Z,14.93
2018-06-09T16:27:35.992Z,17.97
2018-06-09T16:30:03.840Z,16.83
2018-06-09T16:32:31.278Z,15.07
2018-06-09T16:34:58.926Z,16.43
2018-06-09T16:37:26.398Z,18.93
2018-06-09T16:39:53.755Z,17.87
2018-06-09T16:42:21.167Z,17.00
2018-06-09T16:44:48.510Z,18.60
2018-06-09T16:47:15.891Z,18.87
2018-06-09T16:49:43.441Z,17.40
2018-06-09T16:52:11.585Z,17.73
2018-06-09T16:54:38.982Z,17.03
2018-06-09T16:57:06.473Z,17.87
2018-06-09T16:59:33.951Z,18.30
2018-06-09T17:02:03.285Z,18.43
2018-06-09T17:04:31.542Z,17.30
2018-06-09T17:06:59.115Z,18.50
2018-06-09T17:09:26.546Z,18.77
2018-06-09T17:11:54.632Z,17.57
2018-06-09T17:14:22.056Z,18.00
2018-06-09T17:16:49.943Z,18.10
2018-06-09T17:19:17.385Z,18.27
2018-06-09T17:21:45.154Z,19.13
2018-06-09T17:24:20.065Z,18.93
2018-06-09T17:26:47.716Z,19.73
2018-06-09T17:29:15.143Z,19.77
2018-06-09T17:31:42.605Z,18.10
2018-06-09T17:34:10.122Z,18.17
2018-06-09T17:36:37.706Z,18.27
2018-06-09T17:39:07.100Z,19.07
2018-06-09T17:41:34.523Z,17.87
2018-06-09T17:44:01.954Z,17.80
2018-06-09T17:46:29.334Z,18.30
2018-06-09T17:48:56.806Z,20.27
2018-06-09T17:51:24.746Z,20.30
2018-06-09T17:53:52.308Z,17.90
2018-06-09T17:56:20.850Z,19.50
2018-06-09T17:58:48.334Z,17.10
2018-06-09T18:01:15.730Z,18.07
2018-06-09T18:03:43.231Z,18.87
2018-06-09T18:06:11.447Z,19.70
2018-06-09T18:08:39.273Z,17.03
2018-06-09T18:11:09.301Z,17.90
2018-06-09T18:13:37.236Z,22.50
2018-06-09T18:16:04.855Z,18.07
2018-06-09T18:18:36.771Z,17.87
2018-06-09T18:21:04.346Z,17.43
2018-06-09T18:23:31.960Z,16.47
2018-06-09T18:25:59.374Z,17.23
2018-06-09T18:28:26.852Z,19.47
2018-06-09T18:30:54.274Z,19.47
2018-06-09T18:33:24.907Z,18.30
2018-06-09T18:35:52.482Z,17.53
2018-06-09T18:38:23.934Z,20.57
2018-06-09T18:40:56.508Z,18.67
2018-06-09T18:43:24.127Z,19.53
2018-06-09T18:45:55.123Z,20.43
2018-06-09T18:48:22.790Z,20.17
2018-06-09T18:50:50.738Z,20.63
2018-06-09T18:53:20.545Z,20.87
2018-06-09T18:55:54.791Z,21.17
2018-06-09T18:58:24.202Z,20.50
2018-06-09T19:00:52.071Z,21.43
2018-06-09T19:03:22.371Z,19.23
2018-06-09T19:05:49.935Z,21.07
2018-06-09T19:08:17.499Z,21.77
2018-06-09T19:10:49.563Z,21.50
2018-06-09T19:13:19.162Z,20.03
2018-06-09T19:15:54.766Z,20.17
2018-06-09T19:18:28.588Z,26.40
2018-06-09T19:20:56.227Z,24.00
2018-06-09T19:23:26.612Z,22.60
2018-06-09T19:25:55.354Z,24.53
2018-06-09T19:28:25.112Z,26.37
2018-06-09T19:30:54.166Z,25.43
2018-06-09T19:33:22.614Z,27.90
2018-06-09T19:36:07.299Z,24.60
2018-06-09T19:38:35.891Z,26.23
2018-06-09T19:41:03.805Z,26.97
2018-06-09T19:43:31.620Z,24.87
2018-06-09T19:45:59.502Z,26.77
2018-06-09T19:48:27.281Z,23.67
2018-06-09T19:50:56.095Z,27.67
2018-06-09T19:53:25.344Z,25.20
2018-06-09T19:55:53.014Z,30.40
2018-06-09T19:58:20.658Z,41.60
2018-06-09T20:01:01.132Z,33.20
2018-06-09T20:03:29.859Z,31.50
2018-06-09T20:05:57.465Z,28.20
2018-06-09T20:08:29.660Z,29.67
2018-06-09T20:10:57.415Z,31.97
2018-06-09T20:13:24.932Z,46.57
2018-06-09T20:15:59.713Z,65.37
2018-06-09T20:18:28.460Z,52.43
2018-06-09T20:23:41.258Z,52.30
2018-06-09T20:26:08.551Z,49.57
2018-06-09T20:28:35.789Z,45.27
2018-06-09T20:31:03.151Z,42.37
2018-06-09T20:33:30.425Z,31.27
2018-06-09T20:35:57.670Z,34.03
2018-06-09T20:38:24.972Z,33.50
2018-06-09T20:40:52.248Z,33.10
2018-06-09T20:43:19.504Z,31.03
2018-06-09T20:45:46.750Z,29.27
2018-06-09T20:48:13.972Z,31.93
2018-06-09T20:50:41.157Z,37.80
2018-06-09T20:53:08.482Z,35.93
2018-06-09T20:55:35.764Z,29.77
2018-06-09T20:58:03.092Z,26.50
2018-06-09T21:00:30.319Z,29.97
2018-06-09T21:02:57.570Z,27.90
2018-06-09T21:05:24.771Z,30.97
2018-06-09T21:07:51.987Z,31.23
2018-06-09T21:10:19.191Z,28.70
2018-06-09T21:12:46.369Z,27.93
2018-06-09T21:15:14.344Z,30.10
2018-06-09T21:17:41.536Z,27.80
2018-06-09T21:20:08.717Z,27.70
2018-06-09T21:22:35.921Z,28.80
2018-06-09T21:25:03.218Z,30.83
2018-06-09T21:27:36.156Z,36.17
2018-06-09T21:30:10.295Z,50.23
2018-06-09T21:32:43.361Z,40.50
2018-06-09T21:35:28.050Z,35.77
2018-06-09T21:38:00.963Z,34.80
2018-06-09T21:40:32.760Z,35.80
2018-06-09T21:43:05.627Z,34.00
2018-06-09T21:45:38.571Z,33.17
2018-06-09T21:48:05.796Z,31.40
2018-06-09T21:50:33.016Z,38.23
2018-06-09T21:53:00.203Z,35.70
2018-06-09T21:55:27.371Z,33.07
2018-06-09T21:57:54.570Z,35.33
2018-06-09T22:00:25.932Z,40.47
2018-06-09T22:02:53.633Z,35.57
2018-06-09T22:05:21.058Z,33.97
2018-06-09T22:07:48.352Z,39.57
2018-06-09T22:10:15.602Z,38.50
2018-06-09T22:12:43.000Z,40.77
2018-06-09T22:15:10.304Z,35.70
2018-06-09T22:17:37.923Z,38.00
2018-06-09T22:20:05.432Z,24.80
2018-06-09T22:22:32.656Z,22.30
2018-06-09T22:25:00.022Z,19.00
2018-06-09T22:27:27.194Z,16.80
2018-06-09T22:29:54.385Z,18.00
2018-06-09T22:32:21.564Z,21.50
2018-06-09T22:34:48.743Z,24.13
2018-06-09T22:37:15.960Z,19.77
2018-06-09T22:39:43.172Z,23.60
2018-06-09T22:42:10.664Z,16.33
2018-06-09T22:44:37.859Z,14.00
2018-06-09T22:47:05.112Z,13.07
2018-06-09T22:49:32.326Z,15.37
2018-06-09T22:51:59.595Z,14.83
2018-06-09T22:54:26.807Z,13.80
2018-06-09T22:56:54.028Z,13.80
2018-06-09T22:59:21.293Z,11.70
2018-06-09T23:01:48.557Z,11.23
2018-06-09T23:04:15.977Z,10.07
2018-06-09T23:06:43.181Z,11.20
2018-06-09T23:09:10.499Z,11.50
2018-06-09T23:11:37.798Z,13.30
2018-06-09T23:14:05.093Z,19.33
2018-06-09T23:16:32.403Z,16.17
2018-06-09T23:18:59.621Z,14.27
2018-06-09T23:21:26.857Z,12.53
2018-06-09T23:23:57.696Z,11.97
2018-06-09T23:26:24.912Z,11.00
2018-06-09T23:28:52.139Z,10.10
2018-06-09T23:31:19.890Z,11.13
2018-06-09T23:33:47.113Z,10.97
2018-06-09T23:36:14.353Z,11.27
2018-06-09T23:38:41.888Z,10.20
2018-06-09T23:41:09.085Z,11.40
2018-06-09T23:43:36.292Z,11.33
2018-06-09T23:46:03.502Z,11.93
2018-06-09T23:48:30.697Z,10.10
2018-06-09T23:50:57.903Z,13.20
2018-06-09T23:53:25.123Z,12.30
2018-06-09T23:55:52.379Z,11.83
2018-06-09T23:58:19.567Z,21.23
